Time;durP1;ratioP1;P1;durP2;ratioP2;P2;SDS_P1;SDS_P2;PMS_P1;PMS_P2;Temp;Humidity;BMP_temperature;BMP_pressure;BME280_temperature;BME280_humidity;BME280_pressure;Samples;Min_cycle;Max_cycle;Signal;HPM_P1;HPM_P2
2022/07/24 00:00:47;;;;;;;2.80;1.22;;;;;;;27.55;50.03;101527.78;1702273;83;21058;-49
2022/07/24 00:03:15;;;;;;;1.42;1.27;;;;;;;27.55;50.05;101531.78;1733799;81;21070;-49
2022/07/24 00:05:42;;;;;;;3.47;1.22;;;;;;;27.54;50.11;101527.40;1731750;81;21514;-49
2022/07/24 00:08:08;;;;;;;1.77;1.35;;;;;;;27.54;50.07;101530.08;1731725;81;21007;-51
2022/07/24 00:10:35;;;;;;;1.35;1.25;;;;;;;27.54;50.09;101524.72;1722842;82;21023;-49
2022/07/24 00:13:03;;;;;;;1.32;1.22;;;;;;;27.52;50.07;101526.67;1700486;84;21053;-52
2022/07/24 00:15:31;;;;;;;1.50;1.40;;;;;;;27.52;50.04;101519.98;1687887;84;21034;-53
2022/07/24 00:17:59;;;;;;;1.80;1.70;;;;;;;27.51;50.05;101524.98;1699918;83;21014;-50
2022/07/24 00:20:26;;;;;;;2.35;1.60;;;;;;;27.49;50.02;101524.27;1696886;84;21074;-48
2022/07/24 00:22:52;;;;;;;2.00;1.50;;;;;;;27.46;50.05;101529.84;1700136;84;21049;-50
2022/07/24 00:25:19;;;;;;;2.37;1.35;;;;;;;27.44;50.14;101529.11;1699998;84;21061;-54
2022/07/24 00:27:46;;;;;;;1.35;1.22;;;;;;;27.41;50.25;101528.04;1698187;83;21050;-49
2022/07/24 00:30:13;;;;;;;1.60;1.40;;;;;;;27.38;50.35;101527.31;1690199;84;21037;-50
2022/07/24 00:32:40;;;;;;;2.55;1.40;;;;;;;27.37;50.44;101529.60;1728751;81;21011;-51
2022/07/24 00:35:07;;;;;;;4.37;1.50;;;;;;;27.36;50.51;101527.92;1734344;81;21058;-53
2022/07/24 00:37:34;;;;;;;4.10;1.30;;;;;;;27.36;50.59;101531.07;1733153;81;21055;-50
2022/07/24 00:40:01;;;;;;;1.55;1.10;;;;;;;27.34;50.64;101524.52;1699836;83;21046;-54
2022/07/24 00:42:28;;;;;;;1.60;1.42;;;;;;;27.33;50.64;101526.78;1699976;83;21073;-49
2022/07/24 00:44:55;;;;;;;1.55;1.45;;;;;;;27.34;50.69;101525.00;1687033;84;20998;-49
2022/07/24 00:47:22;;;;;;;3.08;1.60;;;;;;;27.33;50.75;101521.44;1698412;84;21002;-49
2022/07/24 00:49:49;;;;;;;3.85;1.50;;;;;;;27.32;50.86;101526.43;1699678;84;22182;-53
2022/07/24 00:52:15;;;;;;;1.60;1.40;;;;;;;27.32;50.94;101521.56;1731368;82;21062;-49
2022/07/24 00:54:42;;;;;;;1.40;1.30;;;;;;;27.32;50.93;101528.25;1736187;81;21531;-49
2022/07/24 00:57:11;;;;;;;2.20;1.45;;;;;;;27.30;50.75;101523.03;1733796;81;21039;-50
2022/07/24 00:59:38;;;;;;;2.35;1.37;;;;;;;27.30;50.65;101525.70;1733178;81;20995;-50
2022/07/24 01:02:05;;;;;;;1.77;1.50;;;;;;;27.27;50.41;101520.59;1733812;81;21050;-49
2022/07/24 01:04:32;;;;;;;2.02;1.70;;;;;;;27.25;50.16;101522.53;1697213;84;21061;-51
2022/07/24 01:06:58;;;;;;;1.40;1.30;;;;;;;27.22;50.04;101528.10;1697707;83;21038;-50
2022/07/24 01:09:25;;;;;;;2.47;1.55;;;;;;;27.17;50.05;101522.77;1699540;83;21542;-49
2022/07/24 01:11:52;;;;;;;3.08;1.42;;;;;;;27.13;50.19;101520.83;1732366;82;21042;-49
2022/07/24 01:14:19;;;;;;;2.30;1.07;;;;;;;27.08;50.35;101517.66;1731604;81;21031;-54
2022/07/24 01:16:46;;;;;;;3.10;1.50;;;;;;;27.05;50.51;101515.24;1733438;81;21341;-51
2022/07/24 01:19:13;;;;;;;2.10;1.50;;;;;;;27.03;50.54;101512.31;1733024;81;21059;-49
2022/07/24 01:21:50;;;;;;;2.83;1.20;;;;;;;27.01;50.55;101510.25;1733475;81;21034;-51
2022/07/24 01:24:18;;;;;;;1.60;1.50;;;;;;;26.99;50.60;101502.37;1696967;84;21046;-54
2022/07/24 01:26:44;;;;;;;2.47;1.37;;;;;;;26.99;50.56;101501.03;1736644;81;21019;-49
2022/07/24 01:29:11;;;;;;;5.62;1.45;;;;;;;27.00;50.49;101498.71;1696557;84;21037;-48
2022/07/24 01:31:38;;;;;;;1.60;1.30;;;;;;;27.00;50.52;101497.38;1700872;83;21026;-52
2022/07/24 01:34:05;;;;;;;1.65;1.40;;;;;;;27.01;50.56;101503.09;1736276;81;21022;-54
2022/07/24 01:36:32;;;;;;;2.25;1.30;;;;;;;27.00;50.55;101498.71;1735264;81;21034;-50
2022/07/24 01:38:59;;;;;;;1.95;1.52;;;;;;;27.00;50.58;101500.05;1733998;81;20975;-50
2022/07/24 01:41:27;;;;;;;2.50;1.45;;;;;;;27.02;50.46;101501.25;1733434;81;21478;-49
2022/07/24 01:43:53;;;;;;;2.80;1.42;;;;;;;27.01;50.44;101499.09;1724936;81;21035;-50
2022/07/24 01:46:20;;;;;;;3.70;1.37;;;;;;;27.02;50.49;101498.58;1733331;81;21050;-50
2022/07/24 01:48:47;;;;;;;1.72;1.37;;;;;;;27.01;50.60;101500.91;1733436;81;21023;-49
2022/07/24 01:51:15;;;;;;;1.62;1.52;;;;;;;26.99;50.57;101501.52;1732774;81;20999;-49
2022/07/24 01:53:42;;;;;;;3.40;1.65;;;;;;;26.97;50.46;101500.30;1733014;81;21023;-49
2022/07/24 01:56:08;;;;;;;2.90;1.50;;;;;;;26.95;50.30;101508.06;1733949;81;20995;-51
2022/07/24 01:58:39;;;;;;;2.72;1.60;;;;;;;26.91;50.36;101498.12;1694426;84;21011;-50
2022/07/24 02:01:06;;;;;;;1.92;1.30;;;;;;;26.90;50.48;101493.73;1700571;84;21046;-55
2022/07/24 02:03:33;;;;;;;3.15;1.50;;;;;;;26.87;50.58;101492.65;1732700;81;21388;-49
2022/07/24 02:06:00;;;;;;;1.92;1.70;;;;;;;26.85;50.63;101484.38;1732220;81;21113;-48
2022/07/24 02:08:27;;;;;;;2.33;2.12;;;;;;;26.85;50.61;101487.06;1734099;82;21073;-48
2022/07/24 02:10:54;;;;;;;1.77;1.47;;;;;;;26.84;50.61;101486.20;1734654;80;21054;-50
2022/07/24 02:13:21;;;;;;;2.05;1.47;;;;;;;26.85;50.56;101480.38;1721540;81;21014;-53
2022/07/24 02:15:47;;;;;;;3.27;1.40;;;;;;;26.85;50.44;101485.24;1699710;84;21085;-50
2022/07/24 02:18:14;;;;;;;1.80;1.22;;;;;;;26.86;50.39;101475.39;1697767;84;21518;-49
2022/07/24 02:20:42;;;;;;;2.00;1.70;;;;;;;26.86;50.27;101474.05;1737560;81;21007;-50
2022/07/24 02:23:09;;;;;;;3.55;1.75;;;;;;;26.86;49.96;101478.91;1730952;81;21488;-52
2022/07/24 02:25:36;;;;;;;3.58;1.60;;;;;;;26.87;49.99;101483.30;1736768;81;20999;-49
2022/07/24 02:28:04;;;;;;;1.60;1.50;;;;;;;26.86;49.96;101476.72;1734454;81;21087;-50
2022/07/24 02:30:30;;;;;;;3.00;1.52;;;;;;;26.83;49.83;101484.48;1724686;81;21531;-49
2022/07/24 02:32:57;;;;;;;3.62;1.55;;;;;;;26.79;49.89;101478.19;1731273;81;21059;-51
2022/07/24 02:35:26;;;;;;;1.77;1.67;;;;;;;26.77;49.81;101479.62;1733886;81;21015;-49
2022/07/24 02:37:53;;;;;;;2.47;1.60;;;;;;;26.75;49.83;101481.56;1700889;84;21482;-49
2022/07/24 02:40:21;;;;;;;1.92;1.47;;;;;;;26.73;49.87;101482.16;1730889;82;20992;-49
2022/07/24 02:42:48;;;;;;;3.98;1.70;;;;;;;26.71;49.93;101478.73;1722488;81;20988;-50
2022/07/24 02:45:15;;;;;;;1.62;1.50;;;;;;;26.70;50.10;101477.05;1733168;81;21020;-51
2022/07/24 02:47:52;;;;;;;1.87;1.60;;;;;;;26.69;50.22;101482.00;1700468;84;21471;-50
2022/07/24 02:50:20;;;;;;;1.65;1.47;;;;;;;26.69;50.11;101482.00;1734879;81;21566;-50
2022/07/24 02:52:47;;;;;;;1.35;1.22;;;;;;;26.69;50.07;101480.67;1732460;81;20994;-49
2022/07/24 02:55:14;;;;;;;2.12;1.85;;;;;;;26.69;50.01;101479.33;1733330;81;21363;-52
2022/07/24 02:57:41;;;;;;;4.65;1.82;;;;;;;26.69;49.91;101478.00;1700726;84;21569;-50
2022/07/24 03:00:15;;;;;;;2.60;1.60;;;;;;;26.68;49.98;101481.66;1701128;83;21015;-52
2022/07/24 03:02:43;;;;;;;1.90;1.67;;;;;;;26.67;50.02;101485.28;1736161;81;20991;-50
2022/07/24 03:05:10;;;;;;;2.30;1.70;;;;;;;26.65;50.29;101487.22;1699514;84;21037;-48
2022/07/24 03:07:36;;;;;;;2.00;1.62;;;;;;;26.63;50.52;101486.01;1697216;83;21071;-48
2022/07/24 03:10:05;;;;;;;2.42;1.72;;;;;;;26.61;50.69;101480.41;1698530;83;20999;-52
2022/07/24 03:12:32;;;;;;;1.92;1.60;;;;;;;26.60;50.73;101481.41;1698108;83;21552;-49
2022/07/24 03:14:58;;;;;;;5.65;1.85;;;;;;;26.59;50.96;101485.02;1695958;83;21033;-51
2022/07/24 03:17:25;;;;;;;1.75;1.65;;;;;;;26.59;51.13;101487.69;1703868;84;21072;-49
2022/07/24 03:19:53;;;;;;;2.33;2.00;;;;;;;26.60;51.20;101484.07;1698913;83;21037;-50
2022/07/24 03:22:20;;;;;;;4.25;1.70;;;;;;;26.60;51.39;101484.07;1731264;81;21023;-49
2022/07/24 03:24:48;;;;;;;2.25;2.00;;;;;;;26.63;51.67;101487.82;1733415;81;21043;-50
2022/07/24 03:27:15;;;;;;;2.90;1.95;;;;;;;26.66;51.90;101482.26;1732999;81;21030;-52
2022/07/24 03:29:43;;;;;;;3.58;1.80;;;;;;;26.69;52.18;101484.67;1732160;81;21011;-50
2022/07/24 03:32:09;;;;;;;2.92;2.00;;;;;;;26.72;52.31;101483.15;1727164;81;21023;-50
2022/07/24 03:34:36;;;;;;;2.72;1.90;;;;;;;26.76;52.48;101481.94;1734906;81;21046;-50
2022/07/24 03:37:03;;;;;;;1.90;1.80;;;;;;;26.82;52.59;101481.94;1731580;82;21002;-50
2022/07/24 03:39:29;;;;;;;3.15;1.75;;;;;;;26.88;52.68;101476.97;1737484;81;21031;-50
2022/07/24 03:41:56;;;;;;;2.75;1.85;;;;;;;26.99;52.67;101477.00;1735414;81;20967;-54
2022/07/24 03:44:23;;;;;;;2.65;1.87;;;;;;;27.10;52.39;101468.96;1730207;81;21035;-50
2022/07/24 03:46:49;;;;;;;1.98;1.75;;;;;;;27.23;52.07;101471.03;1702165;84;21030;-51
2022/07/24 03:49:17;;;;;;;2.17;1.60;;;;;;;27.37;51.75;101470.80;1700728;84;21030;-52
2022/07/24 03:51:44;;;;;;;2.47;1.67;;;;;;;27.52;51.46;101469.20;1700475;84;21471;-50
2022/07/24 03:54:11;;;;;;;1.77;1.60;;;;;;;27.72;51.18;101470.61;1698461;84;21157;-49
2022/07/24 03:56:37;;;;;;;2.05;1.60;;;;;;;27.98;50.93;101469.84;1698534;83;21014;-50
2022/07/24 03:59:05;;;;;;;1.57;1.40;;;;;;;28.33;50.46;101477.10;1735091;81;21531;-49
2022/07/24 04:01:31;;;;;;;1.60;1.50;;;;;;;28.67;49.99;101475.95;1733343;81;21015;-48
2022/07/24 04:04:04;;;;;;;2.30;1.87;;;;;;;29.07;49.07;101473.83;1731529;81;21004;-52
2022/07/24 04:06:27;;;;;;;1.82;1.60;;;;;;;29.40;47.56;101465.52;1730728;81;21468;-48
2022/07/24 04:08:53;;;;;;;1.98;1.50;;;;;;;29.59;46.71;101466.91;1730956;81;21012;-49
2022/07/24 04:11:21;;;;;;;2.02;1.70;;;;;;;29.66;46.37;101474.74;1731899;81;21074;-49
2022/07/24 04:13:49;;;;;;;2.05;1.80;;;;;;;29.65;46.33;101471.72;1728287;81;21472;-50
2022/07/24 04:16:16;;;;;;;2.00;1.62;;;;;;;29.60;46.26;101475.30;1728461;81;21027;-52
2022/07/24 04:18:43;;;;;;;2.08;1.35;;;;;;;29.52;46.20;101475.14;1731594;81;21042;-49
2022/07/24 04:21:10;;;;;;;2.15;1.90;;;;;;;29.42;46.15;101485.00;1729595;81;21078;-49
2022/07/24 04:23:37;;;;;;;3.35;1.85;;;;;;;29.33;46.28;101481.78;1730414;81;21047;-50
2022/07/24 04:26:05;;;;;;;3.22;1.70;;;;;;;29.22;46.50;101481.91;1701061;84;21070;-52
2022/07/24 04:28:32;;;;;;;5.00;1.75;;;;;;;29.12;46.87;101475.62;1732065;81;21003;-49
2022/07/24 04:30:58;;;;;;;2.50;1.77;;;;;;;29.02;46.88;101478.23;1731507;81;21031;-50
2022/07/24 04:33:25;;;;;;;1.75;1.52;;;;;;;28.93;47.02;101478.55;1731726;81;20999;-49
2022/07/24 04:35:52;;;;;;;1.62;1.52;;;;;;;28.87;47.17;101483.10;1730747;81;21035;-53
2022/07/24 04:38:18;;;;;;;2.75;1.82;;;;;;;28.81;47.43;101489.51;1732005;81;21035;-50
2022/07/24 04:40:45;;;;;;;2.30;1.82;;;;;;;28.75;47.57;101488.19;1734231;81;21483;-48
2022/07/24 04:43:12;;;;;;;2.58;1.50;;;;;;;28.71;47.57;101488.09;1696950;84;21018;-52
2022/07/24 04:45:39;;;;;;;2.25;1.57;;;;;;;28.68;47.67;101491.05;1689590;84;21503;-49
2022/07/24 04:48:06;;;;;;;1.77;1.60;;;;;;;28.68;47.63;101492.88;1698972;84;21082;-48
2022/07/24 04:50:33;;;;;;;1.67;1.32;;;;;;;28.66;47.52;101484.98;1734871;81;21061;-50
2022/07/24 04:53:00;;;;;;;2.55;1.60;;;;;;;28.67;47.36;101488.48;1700863;84;21546;-49
2022/07/24 04:55:28;;;;;;;1.80;1.60;;;;;;;28.66;47.37;101487.66;1704399;84;21011;-50
2022/07/24 04:57:54;;;;;;;2.83;1.57;;;;;;;28.65;47.48;101483.27;1699596;84;21553;-51
2022/07/24 05:00:21;;;;;;;2.00;1.47;;;;;;;28.65;47.50;101489.96;1700056;84;21037;-48
2022/07/24 05:02:49;;;;;;;1.50;1.40;;;;;;;28.64;47.41;101486.94;1700660;84;21050;-52
2022/07/24 05:05:16;;;;;;;1.55;1.45;;;;;;;28.65;47.35;101491.30;1735855;81;21051;-49
2022/07/24 05:07:42;;;;;;;2.22;1.50;;;;;;;28.64;47.51;101486.94;1733214;81;21015;-50
2022/07/24 05:10:11;;;;;;;4.65;1.65;;;;;;;28.66;47.76;101483.64;1733156;81;21034;-50
2022/07/24 05:12:38;;;;;;;1.50;1.40;;;;;;;28.69;48.14;101481.16;1733308;81;21015;-50
2022/07/24 05:15:06;;;;;;;3.77;1.82;;;;;;;28.71;48.22;101477.37;1726717;82;21015;-49
2022/07/24 05:17:35;;;;;;;3.50;1.90;;;;;;;28.76;48.17;101483.20;1700831;84;21552;-50
2022/07/24 05:20:05;;;;;;;3.22;1.22;;;;;;;28.86;48.26;101477.41;1736275;81;21498;-50
2022/07/24 05:22:32;;;;;;;1.37;1.27;;;;;;;29.02;47.96;101473.40;1698477;84;20998;-49
2022/07/24 05:24:59;;;;;;;1.62;1.37;;;;;;;29.26;47.50;101477.97;1697938;83;21039;-51
2022/07/24 05:27:26;;;;;;;2.65;1.20;;;;;;;29.53;46.67;101475.52;1698066;83;21062;-51
2022/07/24 05:29:53;;;;;;;3.05;1.45;;;;;;;29.81;45.97;101474.73;1694805;84;20995;-50
2022/07/24 05:32:20;;;;;;;2.22;1.40;;;;;;;30.09;45.38;101480.61;1700089;84;21006;-50
2022/07/24 05:34:47;;;;;;;1.80;1.65;;;;;;;30.33;44.85;101482.91;1698269;84;21006;-50
2022/07/24 05:37:13;;;;;;;2.62;1.60;;;;;;;30.55;44.51;101477.22;1735090;82;21115;-51
2022/07/24 05:39:40;;;;;;;1.70;1.60;;;;;;;30.76;44.18;101483.25;1736573;81;21042;-50
2022/07/24 05:42:07;;;;;;;1.50;1.40;;;;;;;30.96;43.91;101477.34;1700572;84;21022;-52
2022/07/24 05:44:35;;;;;;;2.80;1.47;;;;;;;31.15;43.65;101481.31;1684533;84;21065;-53
2022/07/24 05:47:02;;;;;;;1.80;1.40;;;;;;;31.33;43.23;101472.80;1699989;84;21517;-52
2022/07/24 05:49:28;;;;;;;1.67;1.57;;;;;;;31.50;42.88;101481.45;1736585;81;21011;-50
2022/07/24 05:51:56;;;;;;;4.00;1.47;;;;;;;31.63;42.58;101481.94;1700626;84;21010;-50
2022/07/24 05:54:23;;;;;;;1.42;1.32;;;;;;;31.73;42.00;101482.72;1704221;83;21015;-50
2022/07/24 05:56:50;;;;;;;1.80;1.30;;;;;;;31.82;41.68;101480.44;1697838;84;21033;-51
2022/07/24 05:59:16;;;;;;;3.02;1.77;;;;;;;31.88;41.53;101479.01;1697952;83;21065;-49
2022/07/24 06:01:43;;;;;;;2.17;1.72;;;;;;;31.94;41.51;101476.55;1697752;84;21027;-51
2022/07/24 06:04:10;;;;;;;4.37;1.50;;;;;;;32.00;41.24;101479.16;1697790;83;21050;-50
2022/07/24 06:06:38;;;;;;;1.60;1.50;;;;;;;32.11;40.89;101475.39;1694741;84;21515;-51
2022/07/24 06:09:05;;;;;;;2.40;1.50;;;;;;;32.28;40.85;101481.23;1700739;84;21092;-50
2022/07/24 06:11:32;;;;;;;1.98;1.65;;;;;;;32.51;40.79;101479.78;1698390;84;21042;-48
2022/07/24 06:14:00;;;;;;;2.90;1.80;;;;;;;32.73;40.43;101481.95;1698008;83;21065;-49
2022/07/24 06:16:27;;;;;;;1.80;1.52;;;;;;;32.93;39.88;101482.09;1699058;82;21546;-54
2022/07/24 06:18:54;;;;;;;2.10;1.60;;;;;;;33.09;39.50;101479.51;1697886;83;21018;-51
2022/07/24 06:21:22;;;;;;;1.57;1.45;;;;;;;33.17;39.63;101476.84;1697974;83;21022;-49
2022/07/24 06:23:48;;;;;;;1.60;1.50;;;;;;;33.20;39.71;101474.34;1697380;83;21498;-50
2022/07/24 06:26:15;;;;;;;1.50;1.40;;;;;;;33.20;39.70;101477.85;1697671;83;21026;-54
2022/07/24 06:28:42;;;;;;;1.55;1.45;;;;;;;33.17;39.76;101474.64;1696123;83;21044;-51
2022/07/24 06:31:09;;;;;;;2.22;1.50;;;;;;;33.11;39.88;101474.80;1698165;84;21002;-50
2022/07/24 06:33:36;;;;;;;2.35;1.67;;;;;;;33.07;40.09;101472.08;1697735;83;21011;-52
2022/07/24 06:36:04;;;;;;;1.50;1.40;;;;;;;33.02;40.68;101478.45;1697879;83;21053;-52
2022/07/24 06:38:31;;;;;;;1.52;1.42;;;;;;;32.96;41.21;101476.86;1697604;84;21066;-48
2022/07/24 06:40:58;;;;;;;1.42;1.32;;;;;;;32.90;41.19;101472.95;1697764;83;21066;-50
2022/07/24 06:43:25;;;;;;;1.35;1.25;;;;;;;32.84;41.41;101477.64;1700258;84;21042;-50
2022/07/24 06:45:52;;;;;;;1.85;1.75;;;;;;;32.79;41.85;101477.27;1704142;83;21014;-52
2022/07/24 06:48:19;;;;;;;1.57;1.47;;;;;;;32.73;42.19;101475.20;1697547;83;21006;-54
2022/07/24 06:50:46;;;;;;;2.47;1.70;;;;;;;32.69;42.56;101476.53;1698831;83;21014;-53
2022/07/24 06:53:13;;;;;;;2.27;1.70;;;;;;;32.64;42.96;101480.22;1700652;84;21022;-50
2022/07/24 06:55:39;;;;;;;2.10;1.85;;;;;;;32.60;43.36;101478.84;1700675;84;21569;-52
2022/07/24 06:58:06;;;;;;;2.08;1.60;;;;;;;32.57;43.60;101480.49;1697873;84;21037;-49
2022/07/24 07:00:34;;;;;;;1.60;1.50;;;;;;;32.53;43.75;101476.42;1699403;83;21018;-49
2022/07/24 07:03:00;;;;;;;2.20;1.30;;;;;;;32.50;43.91;101480.80;1699808;84;21046;-50
2022/07/24 07:05:27;;;;;;;1.55;1.45;;;;;;;32.47;43.97;101477.05;1734459;81;21000;-52
2022/07/24 07:07:54;;;;;;;2.02;1.50;;;;;;;32.47;43.78;101482.44;1734519;81;21008;-51
2022/07/24 07:10:21;;;;;;;1.65;1.42;;;;;;;32.47;43.55;101486.48;1706391;83;21565;-54
2022/07/24 07:12:48;;;;;;;1.50;1.40;;;;;;;32.49;43.66;101485.83;1691073;84;21038;-51
2022/07/24 07:15:14;;;;;;;1.50;1.30;;;;;;;32.55;43.74;101482.50;1699453;83;20999;-50
2022/07/24 07:17:42;;;;;;;2.62;1.40;;;;;;;32.68;43.51;101483.80;1698464;84;21062;-51
2022/07/24 07:20:11;;;;;;;1.47;1.30;;;;;;;32.85;43.42;101478.83;1699282;83;21033;-50
2022/07/24 07:22:39;;;;;;;1.50;1.40;;;;;;;33.11;43.00;101477.50;1699602;84;21045;-51
2022/07/24 07:25:07;;;;;;;1.60;1.50;;;;;;;33.36;42.75;101480.64;1734892;81;21554;-49
2022/07/24 07:27:35;;;;;;;1.50;1.40;;;;;;;33.55;42.44;101477.68;1735385;81;21051;-51
2022/07/24 07:30:05;;;;;;;1.32;1.20;;;;;;;33.68;42.31;101477.70;1726600;81;21074;-49
2022/07/24 07:32:31;;;;;;;1.50;1.25;;;;;;;33.75;42.16;101477.41;1747725;80;20988;-49
2022/07/24 07:34:58;;;;;;;2.47;1.50;;;;;;;33.78;42.06;101477.09;1732002;81;21023;-52
2022/07/24 07:37:25;;;;;;;1.55;1.40;;;;;;;33.76;42.03;101476.41;1734530;81;21015;-49
2022/07/24 07:39:52;;;;;;;3.45;1.50;;;;;;;33.72;42.09;101475.05;1736321;81;21519;-50
2022/07/24 07:42:18;;;;;;;1.72;1.50;;;;;;;33.68;42.20;101483.11;1733352;81;21523;-51
2022/07/24 07:44:45;;;;;;;3.25;2.22;;;;;;;33.63;42.36;101475.00;1732503;81;21018;-49
2022/07/24 07:47:12;;;;;;;1.85;1.50;;;;;;;33.60;42.57;101474.00;1733621;82;21491;-50
2022/07/24 07:49:38;;;;;;;1.50;1.40;;;;;;;33.55;42.62;101469.59;1734385;81;20987;-50
2022/07/24 07:52:05;;;;;;;2.35;1.75;;;;;;;33.52;42.85;101469.08;1734798;81;21043;-49
2022/07/24 07:54:32;;;;;;;2.62;1.55;;;;;;;33.47;43.06;101467.33;1732862;81;21543;-52
2022/07/24 07:56:59;;;;;;;3.05;1.42;;;;;;;33.41;43.18;101467.49;1731649;81;21031;-51
2022/07/24 07:59:25;;;;;;;2.00;1.50;;;;;;;33.36;43.54;101470.34;1731682;81;21113;-48
2022/07/24 08:01:52;;;;;;;1.98;1.55;;;;;;;33.29;43.80;101468.80;1731459;81;21023;-50
2022/07/24 08:04:19;;;;;;;2.77;1.25;;;;;;;33.24;44.07;101467.08;1698429;83;22334;-52
2022/07/24 08:06:46;;;;;;;3.12;1.42;;;;;;;33.19;44.43;101465.39;1696053;84;21531;-49
2022/07/24 08:09:13;;;;;;;2.08;1.30;;;;;;;33.13;44.73;101460.65;1700873;84;21050;-51
2022/07/24 08:11:40;;;;;;;1.72;1.40;;;;;;;33.08;45.21;101460.27;1699985;84;21530;-49
2022/07/24 08:14:07;;;;;;;1.65;1.22;;;;;;;33.06;45.25;101456.89;1698288;84;20994;-52
2022/07/24 08:16:34;;;;;;;2.40;1.40;;;;;;;33.04;44.75;101462.09;1697405;84;21523;-51
2022/07/24 08:19:00;;;;;;;1.40;1.30;;;;;;;32.99;44.95;101461.26;1698150;84;21042;-53
2022/07/24 08:21:29;;;;;;;1.90;1.30;;;;;;;32.96;45.01;101461.53;1697636;84;21077;-51
2022/07/24 08:23:56;;;;;;;2.33;1.40;;;;;;;32.95;44.87;101459.86;1699287;83;21490;-50
2022/07/24 08:26:22;;;;;;;2.35;1.40;;;;;;;32.95;44.64;101457.16;1696598;84;21053;-51
2022/07/24 08:28:50;;;;;;;2.67;1.17;;;;;;;32.95;44.35;101458.52;1691104;84;21490;-52
2022/07/24 08:31:17;;;;;;;1.30;1.20;;;;;;;32.94;44.43;101452.77;1693766;84;21042;-49
2022/07/24 08:33:43;;;;;;;1.30;1.20;;;;;;;32.94;44.39;101455.95;1701032;84;21459;-53
2022/07/24 08:36:10;;;;;;;1.20;1.10;;;;;;;32.95;44.38;101453.13;1698885;84;21085;-52
2022/07/24 08:38:37;;;;;;;1.30;1.20;;;;;;;32.96;44.22;101461.53;1697884;84;21062;-51
2022/07/24 08:41:05;;;;;;;3.40;1.30;;;;;;;32.97;44.00;101461.89;1697862;84;21046;-50
2022/07/24 08:43:32;;;;;;;3.55;1.40;;;;;;;32.98;44.02;101458.20;1698157;84;21018;-54
2022/07/24 08:45:59;;;;;;;2.20;1.30;;;;;;;32.99;43.94;101458.56;1693347;83;21057;-50
2022/07/24 08:48:26;;;;;;;1.82;1.20;;;;;;;33.00;43.94;101459.38;1730927;81;21075;-49
2022/07/24 08:50:54;;;;;;;1.42;1.15;;;;;;;33.00;43.93;101452.15;1731492;81;21068;-51
2022/07/24 08:53:22;;;;;;;1.87;1.40;;;;;;;33.00;43.68;101448.10;1731891;81;21011;-50
2022/07/24 08:55:49;;;;;;;1.55;1.12;;;;;;;33.02;43.77;101454.18;1731890;81;21547;-50
2022/07/24 08:58:17;;;;;;;2.47;1.30;;;;;;;33.02;43.54;101454.18;1732319;81;21015;-51
2022/07/24 09:00:44;;;;;;;1.98;1.30;;;;;;;33.03;43.53;101453.69;1701285;83;21526;-51
2022/07/24 09:03:12;;;;;;;2.20;1.20;;;;;;;33.02;43.47;101458.22;1700596;84;21006;-52
2022/07/24 09:05:56;;;;;;;3.17;1.10;;;;;;;33.00;43.42;101454.84;1699312;84;21018;-52
2022/07/24 09:08:22;;;;;;;2.58;1.20;;;;;;;32.98;43.56;101454.16;1723505;82;21046;-51
2022/07/24 09:11:00;;;;;;;1.77;1.47;;;;;;;32.95;43.81;101454.47;1723502;82;21019;-54
2022/07/24 09:13:29;;;;;;;1.80;1.32;;;;;;;32.93;43.92;101445.70;1687290;85;21063;-52
2022/07/24 09:15:56;;;;;;;1.65;1.30;;;;;;;32.93;44.18;101451.09;1687568;85;21032;-49
2022/07/24 09:18:29;;;;;;;1.67;1.57;;;;;;;32.93;44.32;101444.84;1687341;85;21024;-52
2022/07/24 09:20:56;;;;;;;1.27;1.17;;;;;;;32.92;44.37;101443.98;1687213;85;21024;-50
2022/07/24 09:23:23;;;;;;;1.98;1.12;;;;;;;32.94;44.57;101439.28;1687164;85;21025;-52
2022/07/24 09:25:53;;;;;;;1.47;1.25;;;;;;;32.94;44.60;101433.89;1686987;85;21064;-50
2022/07/24 09:28:21;;;;;;;1.45;1.00;;;;;;;32.94;44.66;101431.19;1687293;85;21039;-49
2022/07/24 09:30:48;;;;;;;1.50;1.40;;;;;;;32.95;44.76;101428.86;1687251;85;21123;-52
2022/07/24 09:33:18;;;;;;;1.40;1.30;;;;;;;32.94;44.84;101431.19;1686960;85;21111;-50
2022/07/24 09:35:50;;;;;;;1.00;1.00;;;;;;;32.93;44.85;101432.22;1687127;85;21592;-52
2022/07/24 09:38:22;;;;;;;4.45;1.50;;;;;;;32.88;44.82;101427.80;1686960;85;21702;-51
2022/07/24 09:40:52;;;;;;;1.57;1.20;;;;;;;32.83;44.93;101428.77;1674058;85;21087;-55
2022/07/24 09:43:29;;;;;;;1.87;1.30;;;;;;;32.79;45.22;101424.70;1687330;85;21547;-50
2022/07/24 09:46:04;;;;;;;3.62;1.57;;;;;;;32.76;45.42;101422.34;1687132;85;21571;-51
2022/07/24 09:48:41;;;;;;;2.10;1.17;;;;;;;32.72;45.61;101425.88;1687161;85;21612;-50
2022/07/24 09:51:15;;;;;;;3.08;1.40;;;;;;;32.69;45.63;101424.83;1687022;85;21059;-52
2022/07/24 09:53:46;;;;;;;1.70;1.27;;;;;;;32.67;45.91;101424.14;1681815;85;21060;-53
2022/07/24 09:56:15;;;;;;;1.60;1.25;;;;;;;32.70;45.93;101416.25;1686598;85;21004;-53
2022/07/24 09:58:50;;;;;;;1.82;1.47;;;;;;;32.73;46.03;101414.56;1687095;85;21099;-49
2022/07/24 10:01:19;;;;;;;4.97;1.70;;;;;;;32.75;45.95;101412.55;1689105;84;21055;-49
2022/07/24 10:03:47;;;;;;;2.22;1.40;;;;;;;32.78;46.03;101412.25;1698141;82;21066;-49
2022/07/24 10:06:17;;;;;;;1.98;1.20;;;;;;;32.82;45.92;101408.22;1689026;83;21046;-51
2022/07/24 10:08:47;;;;;;;2.00;1.50;;;;;;;32.84;45.70;101412.95;1697972;83;21606;-50
2022/07/24 10:11:14;;;;;;;2.37;1.40;;;;;;;32.87;45.12;101408.60;1700579;84;21030;-52
2022/07/24 10:13:42;;;;;;;2.15;1.60;;;;;;;32.89;45.09;101413.33;1691369;84;21054;-49
2022/07/24 10:16:21;;;;;;;2.22;1.40;;;;;;;32.89;45.17;101409.28;1736425;81;21007;-51
2022/07/24 10:18:59;;;;;;;2.45;1.30;;;;;;;32.86;45.09;101404.20;1698122;84;21491;-52
2022/07/24 10:21:37;;;;;;;1.90;1.40;;;;;;;32.82;45.43;101401.48;1736093;81;21015;-49
2022/07/24 10:24:13;;;;;;;1.92;1.22;;;;;;;32.77;45.58;101400.61;1704546;83;21570;-51
2022/07/24 10:26:47;;;;;;;1.70;1.37;;;;;;;32.73;45.89;101401.94;1740090;81;21472;-50
2022/07/24 10:29:23;;;;;;;1.75;1.20;;;;;;;32.70;45.89;101400.94;1680707;85;21018;-51
2022/07/24 10:31:55;;;;;;;3.20;1.35;;;;;;;32.70;45.98;101402.28;1680627;85;21506;-55
2022/07/24 10:35:05;;;;;;;2.77;1.47;;;;;;;32.70;46.13;101401.42;1680460;85;21226;-50
2022/07/24 10:37:40;;;;;;;3.42;2.45;;;;;;;32.71;46.32;101398.56;1683450;85;21054;-50
2022/07/24 10:40:24;;;;;;;2.77;1.50;;;;;;;32.73;46.40;101395.20;1683479;85;21542;-53
2022/07/24 10:43:09;;;;;;;3.33;1.30;;;;;;;32.75;46.10;101393.69;1686007;85;21073;-55
2022/07/24 10:45:43;;;;;;;1.47;1.30;;;;;;;32.75;46.24;101393.69;1671030;85;21062;-51
2022/07/24 10:48:26;;;;;;;3.17;1.35;;;;;;;32.76;46.47;101392.70;1677374;85;21019;-53
2022/07/24 10:51:03;;;;;;;2.20;1.20;;;;;;;32.77;46.30;101397.06;1677313;85;21086;-53
2022/07/24 10:53:47;;;;;;;3.65;1.50;;;;;;;32.73;46.24;101393.86;1676978;85;21090;-52
2022/07/24 10:56:29;;;;;;;1.50;1.40;;;;;;;32.73;46.15;101399.74;1677418;85;21054;-51
2022/07/24 10:59:09;;;;;;;1.62;1.45;;;;;;;32.70;46.52;101397.38;1688270;84;21058;-50
2022/07/24 11:01:44;;;;;;;3.40;1.40;;;;;;;32.67;46.54;101403.08;1688148;83;21026;-51
2022/07/24 11:04:25;;;;;;;2.98;1.35;;;;;;;32.65;46.62;101409.13;1689120;84;21086;-51
2022/07/24 11:07:11;;;;;;;1.87;1.30;;;;;;;32.63;46.39;101403.91;1677496;85;21534;-50
2022/07/24 11:10:00;;;;;;;3.00;1.07;;;;;;;32.62;46.41;101401.38;1688268;85;21006;-52
2022/07/24 11:12:31;;;;;;;2.47;1.30;;;;;;;32.59;46.75;101394.95;1693936;84;21003;-49
2022/07/24 11:17:48;;;;;;;1.60;1.22;;;;;;;32.58;47.00;101397.32;1686069;85;21587;-50
2022/07/24 11:20:19;;;;;;;1.95;1.60;;;;;;;32.60;46.99;101392.61;1681570;85;21062;-50
2022/07/24 11:22:52;;;;;;;1.65;1.25;;;;;;;32.63;46.99;101394.48;1683778;84;21006;-49
2022/07/24 11:25:27;;;;;;;3.02;1.52;;;;;;;32.68;47.05;101389.96;1693761;82;21002;-50
2022/07/24 11:27:57;;;;;;;2.02;1.50;;;;;;;32.74;47.08;101392.02;1701046;84;21054;-52
2022/07/24 11:30:27;;;;;;;2.17;1.47;;;;;;;32.79;46.83;101389.66;1700357;84;21498;-51
2022/07/24 11:32:55;;;;;;;2.67;1.50;;;;;;;32.83;46.62;101394.58;1730600;81;21093;-55